createdAt,value
2019-05-05T00:00:44.748Z,3.15
2019-05-05T00:06:49.585Z,3.05
2019-05-05T00:12:58.682Z,2.76
2019-05-05T00:19:04.795Z,2.62
2019-05-05T00:25:09.807Z,2.51
2019-05-05T00:31:15.025Z,2.51
2019-05-05T00:38:15.422Z,2.44
2019-05-05T00:44:20.048Z,2.50
2019-05-05T00:50:25.305Z,2.40
2019-05-05T00:56:29.989Z,2.26
2019-05-05T01:02:39.055Z,2.22
2019-05-05T01:08:44.554Z,2.07
2019-05-05T01:14:49.270Z,1.97
2019-05-05T01:20:55.218Z,1.87
2019-05-05T01:26:59.901Z,1.62
2019-05-05T01:33:14.544Z,1.66
2019-05-05T01:39:21.036Z,1.59
2019-05-05T01:45:25.671Z,1.94
2019-05-05T01:51:30.350Z,1.80
2019-05-05T01:57:35.048Z,1.76
2019-05-05T02:03:39.851Z,1.89
2019-05-05T02:09:45.096Z,1.83
2019-05-05T02:15:49.844Z,1.74
2019-05-05T02:21:55.136Z,1.62
2019-05-05T02:27:59.790Z,1.45
2019-05-05T02:34:05.453Z,1.34
2019-05-05T02:40:15.669Z,1.43
2019-05-05T02:46:20.805Z,1.36
2019-05-05T02:52:25.799Z,1.10
2019-05-05T02:58:33.958Z,1.09
2019-05-05T03:04:39.555Z,1.11
2019-05-05T03:10:45.989Z,1.10
2019-05-05T03:16:51.685Z,0.99
2019-05-05T03:22:58.058Z,1.34
2019-05-05T03:29:04.875Z,1.35
2019-05-05T03:35:09.837Z,1.38
2019-05-05T03:41:16.358Z,1.36
2019-05-05T03:47:21.380Z,1.28
2019-05-05T03:53:26.566Z,1.14
2019-05-05T03:59:31.285Z,1.13
2019-05-05T04:05:37.724Z,1.21
2019-05-05T04:11:44.349Z,1.47
2019-05-05T04:17:50.344Z,1.68
2019-05-05T04:23:54.896Z,1.73
2019-05-05T04:29:59.531Z,1.87
2019-05-05T04:36:04.144Z,2.01
2019-05-05T04:42:08.679Z,2.03
2019-05-05T04:48:14.956Z,2.05
2019-05-05T04:54:21.147Z,2.03
2019-05-05T05:00:25.783Z,2.13
2019-05-05T05:06:37.736Z,2.30
2019-05-05T05:12:43.584Z,2.68
2019-05-05T05:18:48.284Z,3.16
2019-05-05T05:24:54.106Z,3.13
2019-05-05T05:30:58.837Z,3.09
2019-05-05T05:37:04.196Z,3.28
2019-05-05T05:43:10.749Z,3.66
2019-05-05T05:49:34.791Z,3.94
2019-05-05T05:55:39.454Z,4.03
2019-05-05T06:01:44.471Z,4.30
2019-05-05T06:07:49.045Z,4.67
2019-05-05T06:13:54.500Z,4.81
2019-05-05T06:19:59.112Z,5.18
2019-05-05T06:26:06.724Z,5.44
2019-05-05T06:32:10.019Z,6.16
2019-05-05T06:38:14.567Z,6.22
2019-05-05T06:44:26.547Z,6.23
2019-05-05T06:50:31.096Z,6.41
2019-05-05T06:56:35.638Z,6.83
2019-05-05T07:02:40.357Z,6.97
2019-05-05T07:08:44.905Z,6.92
2019-05-05T07:14:49.459Z,7.08
2019-05-05T07:20:54.611Z,7.11
2019-05-05T07:26:59.246Z,7.81
2019-05-05T07:33:04.608Z,7.97
2019-05-05T07:39:10.610Z,9.17
2019-05-05T07:45:22.496Z,8.10
2019-05-05T07:51:24.129Z,7.69
2019-05-05T07:57:28.395Z,7.77
2019-05-05T08:03:34.719Z,7.40
2019-05-05T08:09:39.428Z,7.11
2019-05-05T08:15:56.874Z,7.44
2019-05-05T08:21:54.124Z,8.33
2019-05-05T08:28:08.766Z,8.42
2019-05-05T08:34:14.276Z,9.02
2019-05-05T08:40:19.245Z,8.72
2019-05-05T08:46:24.779Z,9.38
2019-05-05T08:52:29.411Z,10.14
2019-05-05T08:58:34.917Z,10.45
2019-05-05T09:04:39.458Z,9.24
2019-05-05T09:10:45.273Z,9.76
2019-05-05T09:16:49.938Z,10.60
2019-05-05T09:22:57.217Z,10.82
2019-05-05T09:29:18.452Z,10.77
2019-05-05T09:35:24.048Z,10.68
2019-05-05T09:41:28.748Z,10.36
2019-05-05T09:47:34.354Z,11.22
2019-05-05T09:53:39.035Z,11.64
2019-05-05T09:59:44.152Z,11.79
2019-05-05T10:05:49.093Z,12.81
2019-05-05T10:11:54.126Z,12.99
2019-05-05T10:17:58.853Z,12.86
2019-05-05T10:24:07.704Z,14.26
2019-05-05T10:30:14.282Z,12.52
2019-05-05T10:36:18.933Z,10.76
2019-05-05T10:42:25.145Z,10.90
2019-05-05T10:48:29.699Z,12.42
2019-05-05T10:54:44.019Z,13.67
2019-05-05T11:00:51.163Z,13.26
2019-05-05T11:06:55.908Z,12.60
2019-05-05T11:13:00.457Z,13.28
2019-05-05T11:19:05.241Z,12.19
2019-05-05T11:25:09.788Z,11.34
2019-05-05T11:31:14.410Z,11.14
2019-05-05T11:37:19.252Z,11.91
2019-05-05T11:43:24.662Z,11.36
2019-05-05T11:49:29.406Z,12.16
2019-05-05T11:55:33.977Z,16.51
2019-05-05T12:01:38.626Z,17.45
2019-05-05T12:07:43.737Z,17.02
2019-05-05T12:13:48.480Z,15.89
2019-05-05T12:19:54.107Z,16.27
2019-05-05T12:26:00.475Z,15.30
2019-05-05T12:32:05.099Z,19.55
2019-05-05T12:38:09.661Z,18.27
2019-05-05T12:44:16.007Z,17.06
2019-05-05T12:50:21.035Z,15.70
2019-05-05T12:56:25.668Z,15.94
2019-05-05T13:02:30.397Z,15.30
2019-05-05T13:08:35.039Z,14.42
2019-05-05T13:14:39.626Z,14.68
2019-05-05T13:20:54.689Z,18.54
2019-05-05T13:27:10.240Z,18.60
2019-05-05T13:33:14.166Z,17.67
2019-05-05T13:39:18.866Z,17.95
2019-05-05T13:45:43.606Z,19.35
2019-05-05T13:51:48.368Z,21.48
2019-05-05T13:57:54.722Z,17.92
2019-05-05T14:03:59.250Z,17.36
2019-05-05T14:10:04.362Z,18.20
2019-05-05T14:16:08.914Z,16.14
2019-05-05T14:22:13.477Z,15.27
2019-05-05T14:28:18.311Z,14.82
2019-05-05T14:34:30.342Z,14.40
2019-05-05T14:40:35.116Z,14.43
2019-05-05T14:46:39.666Z,15.75
2019-05-05T14:52:44.239Z,20.10
2019-05-05T14:58:48.792Z,24.89
2019-05-05T15:04:55.001Z,26.33
2019-05-05T15:11:07.284Z,23.04
2019-05-05T15:17:14.004Z,19.53
2019-05-05T15:23:18.202Z,18.33
2019-05-05T15:29:24.987Z,16.56
2019-05-05T15:35:29.261Z,15.12
2019-05-05T15:41:34.167Z,14.42
2019-05-05T15:47:38.867Z,13.44
2019-05-05T15:53:43.421Z,13.35
2019-05-05T15:59:48.003Z,13.77
2019-05-05T16:05:54.340Z,14.87
2019-05-05T16:11:58.919Z,19.73
2019-05-05T16:18:20.189Z,19.19
2019-05-05T16:24:26.554Z,21.02
2019-05-05T16:30:31.127Z,18.56
2019-05-05T16:36:35.670Z,14.86
2019-05-05T16:42:40.421Z,13.31
2019-05-05T16:48:45.399Z,12.17
2019-05-05T16:55:04.539Z,11.47
2019-05-05T17:01:11.026Z,11.26
2019-05-05T17:07:15.585Z,11.30
2019-05-05T17:13:21.778Z,11.56
2019-05-05T17:19:28.057Z,14.98
2019-05-05T17:25:34.239Z,14.35
2019-05-05T17:31:38.964Z,12.31
2019-05-05T17:37:44.234Z,12.26
2019-05-05T17:43:50.558Z,12.03
2019-05-05T17:49:54.983Z,11.76
2019-05-05T17:56:01.176Z,11.47
2019-05-05T18:02:05.887Z,11.00
2019-05-05T18:08:13.815Z,10.95
2019-05-05T18:14:24.028Z,11.09
2019-05-05T18:20:28.773Z,11.13
2019-05-05T18:26:34.062Z,10.93
2019-05-05T18:32:38.954Z,10.54
2019-05-05T18:38:44.457Z,10.35
2019-05-05T18:44:54.058Z,10.22
2019-05-05T18:50:59.200Z,10.27
2019-05-05T18:57:05.317Z,10.06
2019-05-05T19:03:18.609Z,9.97
2019-05-05T19:09:19.581Z,9.78
2019-05-05T19:15:24.578Z,9.49
2019-05-05T19:21:30.945Z,9.53
2019-05-05T19:27:35.502Z,9.64
2019-05-05T19:33:40.043Z,9.54
2019-05-05T19:39:44.587Z,9.39
2019-05-05T19:45:49.137Z,9.26
2019-05-05T19:51:54.252Z,9.28
2019-05-05T19:57:58.905Z,9.05
2019-05-05T20:04:04.927Z,8.99
2019-05-05T20:10:09.799Z,8.90
2019-05-05T20:16:34.010Z,9.01
2019-05-05T20:22:38.071Z,8.83
2019-05-05T20:28:42.684Z,8.74
2019-05-05T20:35:01.033Z,8.48
2019-05-05T20:41:16.246Z,8.29
2019-05-05T20:47:20.887Z,8.14
2019-05-05T20:53:25.433Z,7.96
2019-05-05T20:59:31.098Z,7.62
2019-05-05T21:05:35.986Z,7.40
2019-05-05T21:11:40.554Z,7.19
2019-05-05T21:17:45.162Z,7.17
2019-05-05T21:23:51.369Z,6.94
2019-05-05T21:29:55.888Z,6.63
2019-05-05T21:36:00.431Z,6.55
2019-05-05T21:42:04.981Z,6.21
2019-05-05T21:48:09.524Z,6.01
2019-05-05T21:54:31.771Z,5.94
2019-05-05T22:00:48.358Z,5.93
2019-05-05T22:06:54.075Z,5.74
2019-05-05T22:12:58.737Z,5.50
2019-05-05T22:19:04.650Z,5.66
2019-05-05T22:25:09.521Z,5.35
2019-05-05T22:31:14.261Z,5.30
2019-05-05T22:37:18.891Z,4.87
2019-05-05T22:43:23.886Z,4.76
2019-05-05T22:49:28.741Z,4.89
2019-05-05T22:55:34.898Z,4.72
2019-05-05T23:01:39.690Z,4.80
2019-05-05T23:07:44.228Z,4.96
2019-05-05T23:13:48.782Z,5.04
2019-05-05T23:19:55.902Z,4.95
2019-05-05T23:26:03.763Z,4.89
2019-05-05T23:32:08.421Z,5.03
2019-05-05T23:38:14.374Z,4.64
2019-05-05T23:44:19.106Z,4.49
2019-05-05T23:50:24.296Z,4.25
2019-05-05T23:56:28.835Z,4.14
